EDDV Airport Information

Runway Information
Runway 09C Length 2559 ft width 74 ft
Elevation 178 ft Threshold 214 ft Heading 92
Runway 27C Length 2559 ft Width 74 ft
Elevation 174 ft Threshold 541 ft Heading 272
Runway 09L Length 12467 ft width 148 ft
Elevation 167 ft Threshold 984 ft Heading 93
Runway 27R Length 12467 ft Width 148 ft
Elevation 169 ft Threshold 984 ft Heading 273
Runway 09R Length 7677 ft width 148 ft
Elevation 172 ft Threshold 0 ft Heading 93
Runway 27L Length 7677 ft Width 148 ft
Elevation 179 ft Threshold 0 ft Heading 273
Airport Frequencies
Type APP Name DIRECTOR Frequency 119.6 MHZ
Type ATIS Name ATIS Frequency 132.125 MHZ
Type GND Name GND Frequency 121.95 MHZ
Type INFO Name BREMEN INF Frequency 119.825 MHZ
Type RDR Name BREMEN RAD Frequency 131.325 MHZ
Type TWR Name TWR Frequency 120.175 MHZ
Airport Navaids
Type NDB Name Hannover Frequency 320 KHZ
Type DME Name Hannover Frequency 113950 KHZ
Type NDB Name Hannover Frequency 332 KHZ
Type DME Name Hannover Frequency 116900 KHZ
Type NDB Name Hannover Frequency 358 KHZ
Airport Weather Information & NOTAM
ADDS - METARS form results

(0354 UTC 18 November 2018)
Data provider http://aviationweather.gov/metar/data/
 
METAR text: EDDV 180350Z 08006KT CAVOK M03/M05 Q1034 NOSIG
Conditions at: EDDV (HANNOVER , DE) observed 0350 UTC 18 November 2018
Temperature: -3.0°C (27°F)
Dewpoint: -5.0°C (23°F) [RH = 86%]
Pressure (altimeter): 30.53 inches Hg (1034.0 mb)
Winds: from the E (80 degrees) at 7 MPH (6 knots; 3.1 m/s)
Visibility: 6 or more miles (10+ km)
Ceiling: ceiling and visibility are OK
Clouds: unknown
Weather: no significant weather observed at this time

METAR text: EDDV 180320Z 07007KT CAVOK M03/M05 Q1034
Conditions at: EDDV (HANNOVER , DE) observed 0320 UTC 18 November 2018
Temperature: -3.0°C (27°F)
Dewpoint: -5.0°C (23°F) [RH = 86%]
Pressure (altimeter): 30.53 inches Hg (1034.0 mb)
Winds: from the ENE (70 degrees) at 8 MPH (7 knots; 3.6 m/s)
Visibility: 6 or more miles (10+ km)
Ceiling: ceiling and visibility are OK
Clouds: unknown
Weather: no significant weather observed at this time

Forecast for: EDDV (HANNOVER , DE)
Text: TAF EDDV 172300Z 1800/1824 06007KT CAVOK
Forecast period: 0000 UTC 18 November 2018 to 0000 UTC 19 November 2018
Forecast type: FROM: standard forecast or significant change
Winds: from the ENE (60 degrees) at 8 MPH (7 knots; 3.6 m/s)
Visibility: 6 or more miles 10+ km)
Ceiling: unknown
Clouds: missing
Weather: NSW  (no significant weather)
Text: PROB40
Forecast period: 1400 to 1800 UTC 18 November 2018
Forecast type: TEMPORARY: The following changes expected for less than half the time period
Visibility: missing
Ceiling: 1200 feet AGL
Clouds: broken clouds at 1200 feet AGL
Weather: no significant weather forecast for this period